sensor_id;sensor_type;location;lat;lon;timestamp;P1;durP1;ratioP1;P2;durP2;ratioP2
10880;SDS011;5493;48.884;8.338;2022-10-26T00:00:31;2.07;;;1.40;;
10880;SDS011;5493;48.884;8.338;2022-10-26T00:02:58;6.93;;;2.03;;
10880;SDS011;5493;48.884;8.338;2022-10-26T00:05:25;8.20;;;1.73;;
10880;SDS011;5493;48.884;8.338;2022-10-26T00:07:51;4.90;;;1.60;;
10880;SDS011;5493;48.884;8.338;2022-10-26T00:10:18;4.93;;;1.87;;
10880;SDS011;5493;48.884;8.338;2022-10-26T00:12:48;3.53;;;1.80;;
10880;SDS011;5493;48.884;8.338;2022-10-26T00:15:15;4.20;;;1.57;;
10880;SDS011;5493;48.884;8.338;2022-10-26T00:17:42;3.10;;;2.13;;
10880;SDS011;5493;48.884;8.338;2022-10-26T00:20:09;3.57;;;1.67;;
10880;SDS011;5493;48.884;8.338;2022-10-26T00:22:36;3.30;;;1.40;;
10880;SDS011;5493;48.884;8.338;2022-10-26T00:25:03;6.67;;;1.57;;
10880;SDS011;5493;48.884;8.338;2022-10-26T00:27:30;2.43;;;1.40;;
10880;SDS011;5493;48.884;8.338;2022-10-26T00:29:59;4.20;;;1.80;;
10880;SDS011;5493;48.884;8.338;2022-10-26T00:32:26;3.63;;;1.93;;
10880;SDS011;5493;48.884;8.338;2022-10-26T00:34:53;3.57;;;1.50;;
10880;SDS011;5493;48.884;8.338;2022-10-26T00:37:19;3.70;;;1.70;;
10880;SDS011;5493;48.884;8.338;2022-10-26T00:39:46;1.77;;;1.37;;
10880;SDS011;5493;48.884;8.338;2022-10-26T00:42:14;7.37;;;1.60;;
10880;SDS011;5493;48.884;8.338;2022-10-26T00:47:44;4.80;;;1.43;;
10880;SDS011;5493;48.884;8.338;2022-10-26T00:50:14;1.97;;;1.40;;
10880;SDS011;5493;48.884;8.338;2022-10-26T00:52:43;3.60;;;1.50;;
10880;SDS011;5493;48.884;8.338;2022-10-26T00:55:10;3.07;;;1.50;;
10880;SDS011;5493;48.884;8.338;2022-10-26T00:57:37;1.90;;;1.30;;
10880;SDS011;5493;48.884;8.338;2022-10-26T01:00:06;4.73;;;1.57;;
10880;SDS011;5493;48.884;8.338;2022-10-26T01:02:35;3.00;;;1.30;;
10880;SDS011;5493;48.884;8.338;2022-10-26T01:05:02;3.27;;;1.67;;
10880;SDS011;5493;48.884;8.338;2022-10-26T01:07:31;2.83;;;1.40;;
10880;SDS011;5493;48.884;8.338;2022-10-26T01:09:59;4.53;;;1.50;;
10880;SDS011;5493;48.884;8.338;2022-10-26T01:12:26;3.00;;;1.60;;
10880;SDS011;5493;48.884;8.338;2022-10-26T01:14:52;4.10;;;1.40;;
10880;SDS011;5493;48.884;8.338;2022-10-26T01:17:26;2.33;;;1.40;;
10880;SDS011;5493;48.884;8.338;2022-10-26T01:20:17;5.67;;;1.30;;
10880;SDS011;5493;48.884;8.338;2022-10-26T01:23:05;2.47;;;1.50;;
10880;SDS011;5493;48.884;8.338;2022-10-26T01:25:49;4.30;;;1.37;;
10880;SDS011;5493;48.884;8.338;2022-10-26T01:28:33;1.77;;;1.40;;
10880;SDS011;5493;48.884;8.338;2022-10-26T01:31:19;3.23;;;1.37;;
10880;SDS011;5493;48.884;8.338;2022-10-26T01:33:54;3.20;;;1.40;;
10880;SDS011;5493;48.884;8.338;2022-10-26T01:36:28;2.43;;;1.40;;
10880;SDS011;5493;48.884;8.338;2022-10-26T01:39:00;3.60;;;1.57;;
10880;SDS011;5493;48.884;8.338;2022-10-26T01:41:34;2.37;;;1.27;;
10880;SDS011;5493;48.884;8.338;2022-10-26T01:44:05;5.23;;;1.80;;
10880;SDS011;5493;48.884;8.338;2022-10-26T01:46:36;3.57;;;1.50;;
10880;SDS011;5493;48.884;8.338;2022-10-26T01:49:07;4.73;;;1.20;;
10880;SDS011;5493;48.884;8.338;2022-10-26T01:51:35;6.33;;;1.63;;
10880;SDS011;5493;48.884;8.338;2022-10-26T01:54:04;3.23;;;1.30;;
10880;SDS011;5493;48.884;8.338;2022-10-26T01:56:31;3.20;;;1.60;;
10880;SDS011;5493;48.884;8.338;2022-10-26T01:59:18;4.33;;;1.57;;
10880;SDS011;5493;48.884;8.338;2022-10-26T02:07:52;3.57;;;1.50;;
10880;SDS011;5493;48.884;8.338;2022-10-26T02:10:27;5.00;;;1.50;;
10880;SDS011;5493;48.884;8.338;2022-10-26T02:13:06;2.43;;;1.60;;
10880;SDS011;5493;48.884;8.338;2022-10-26T02:15:42;3.43;;;1.43;;
10880;SDS011;5493;48.884;8.338;2022-10-26T02:18:17;3.40;;;1.90;;
10880;SDS011;5493;48.884;8.338;2022-10-26T02:20:53;2.77;;;1.80;;
10880;SDS011;5493;48.884;8.338;2022-10-26T02:23:24;4.77;;;2.00;;
10880;SDS011;5493;48.884;8.338;2022-10-26T02:25:54;6.90;;;1.70;;
10880;SDS011;5493;48.884;8.338;2022-10-26T02:28:24;4.23;;;1.70;;
10880;SDS011;5493;48.884;8.338;2022-10-26T02:30:56;3.33;;;1.60;;
10880;SDS011;5493;48.884;8.338;2022-10-26T02:33:26;4.47;;;1.63;;
10880;SDS011;5493;48.884;8.338;2022-10-26T02:35:57;6.43;;;2.00;;
10880;SDS011;5493;48.884;8.338;2022-10-26T02:38:26;2.70;;;1.50;;
10880;SDS011;5493;48.884;8.338;2022-10-26T02:40:55;3.20;;;1.73;;
10880;SDS011;5493;48.884;8.338;2022-10-26T02:43:23;6.87;;;1.80;;
10880;SDS011;5493;48.884;8.338;2022-10-26T02:45:52;2.33;;;1.70;;
10880;SDS011;5493;48.884;8.338;2022-10-26T02:48:22;3.63;;;1.80;;
10880;SDS011;5493;48.884;8.338;2022-10-26T02:50:52;2.93;;;1.80;;
10880;SDS011;5493;48.884;8.338;2022-10-26T02:53:25;4.50;;;1.73;;
10880;SDS011;5493;48.884;8.338;2022-10-26T02:55:55;5.13;;;1.80;;
10880;SDS011;5493;48.884;8.338;2022-10-26T02:58:26;4.20;;;1.93;;
10880;SDS011;5493;48.884;8.338;2022-10-26T03:00:56;3.37;;;1.80;;
10880;SDS011;5493;48.884;8.338;2022-10-26T03:03:23;5.50;;;1.83;;
10880;SDS011;5493;48.884;8.338;2022-10-26T03:05:52;5.00;;;2.13;;
10880;SDS011;5493;48.884;8.338;2022-10-26T03:08:18;3.50;;;1.87;;
10880;SDS011;5493;48.884;8.338;2022-10-26T03:10:45;4.53;;;1.77;;
10880;SDS011;5493;48.884;8.338;2022-10-26T03:13:12;6.70;;;1.90;;
10880;SDS011;5493;48.884;8.338;2022-10-26T03:15:39;4.10;;;1.87;;
10880;SDS011;5493;48.884;8.338;2022-10-26T03:18:06;5.97;;;2.13;;
10880;SDS011;5493;48.884;8.338;2022-10-26T03:20:33;2.37;;;1.60;;
10880;SDS011;5493;48.884;8.338;2022-10-26T03:23:01;4.23;;;1.53;;
10880;SDS011;5493;48.884;8.338;2022-10-26T03:25:28;5.87;;;1.67;;
10880;SDS011;5493;48.884;8.338;2022-10-26T03:27:57;5.33;;;2.10;;
10880;SDS011;5493;48.884;8.338;2022-10-26T03:30:25;3.03;;;1.80;;
10880;SDS011;5493;48.884;8.338;2022-10-26T03:32:52;3.17;;;1.53;;
10880;SDS011;5493;48.884;8.338;2022-10-26T03:35:19;2.73;;;1.70;;
10880;SDS011;5493;48.884;8.338;2022-10-26T03:37:46;2.53;;;1.57;;
10880;SDS011;5493;48.884;8.338;2022-10-26T03:40:14;2.57;;;1.73;;
10880;SDS011;5493;48.884;8.338;2022-10-26T03:42:41;3.20;;;2.13;;
10880;SDS011;5493;48.884;8.338;2022-10-26T03:45:08;4.27;;;2.27;;
10880;SDS011;5493;48.884;8.338;2022-10-26T03:47:40;4.83;;;2.30;;
10880;SDS011;5493;48.884;8.338;2022-10-26T03:50:08;4.50;;;2.73;;
10880;SDS011;5493;48.884;8.338;2022-10-26T03:52:34;2.50;;;2.27;;
10880;SDS011;5493;48.884;8.338;2022-10-26T03:55:01;4.47;;;2.23;;
10880;SDS011;5493;48.884;8.338;2022-10-26T03:57:29;4.10;;;2.00;;
10880;SDS011;5493;48.884;8.338;2022-10-26T03:59:56;5.83;;;2.23;;
10880;SDS011;5493;48.884;8.338;2022-10-26T04:02:22;4.07;;;1.80;;
10880;SDS011;5493;48.884;8.338;2022-10-26T04:04:49;3.03;;;1.87;;
10880;SDS011;5493;48.884;8.338;2022-10-26T04:07:15;4.20;;;2.43;;
10880;SDS011;5493;48.884;8.338;2022-10-26T04:09:42;6.20;;;2.20;;
10880;SDS011;5493;48.884;8.338;2022-10-26T04:12:08;7.10;;;2.57;;
10880;SDS011;5493;48.884;8.338;2022-10-26T04:14:36;2.73;;;1.97;;
10880;SDS011;5493;48.884;8.338;2022-10-26T04:17:03;4.27;;;2.07;;
10880;SDS011;5493;48.884;8.338;2022-10-26T04:19:29;6.80;;;1.83;;
10880;SDS011;5493;48.884;8.338;2022-10-26T04:21:56;4.90;;;1.60;;
10880;SDS011;5493;48.884;8.338;2022-10-26T04:24:22;4.67;;;1.47;;
10880;SDS011;5493;48.884;8.338;2022-10-26T04:26:49;2.97;;;1.20;;
10880;SDS011;5493;48.884;8.338;2022-10-26T04:29:15;3.30;;;1.17;;
10880;SDS011;5493;48.884;8.338;2022-10-26T04:31:43;3.73;;;1.40;;
10880;SDS011;5493;48.884;8.338;2022-10-26T04:34:10;2.60;;;1.50;;
10880;SDS011;5493;48.884;8.338;2022-10-26T04:36:36;4.70;;;2.10;;
10880;SDS011;5493;48.884;8.338;2022-10-26T04:39:03;3.63;;;1.93;;
10880;SDS011;5493;48.884;8.338;2022-10-26T04:41:29;3.70;;;1.70;;
10880;SDS011;5493;48.884;8.338;2022-10-26T04:43:56;4.10;;;1.87;;
10880;SDS011;5493;48.884;8.338;2022-10-26T04:46:23;7.33;;;1.80;;
10880;SDS011;5493;48.884;8.338;2022-10-26T04:48:51;3.10;;;1.80;;
10880;SDS011;5493;48.884;8.338;2022-10-26T04:51:17;7.83;;;1.90;;
10880;SDS011;5493;48.884;8.338;2022-10-26T04:53:44;6.00;;;1.70;;
10880;SDS011;5493;48.884;8.338;2022-10-26T04:56:10;3.73;;;2.03;;
10880;SDS011;5493;48.884;8.338;2022-10-26T04:58:37;2.10;;;1.40;;
10880;SDS011;5493;48.884;8.338;2022-10-26T05:01:03;2.87;;;1.77;;
10880;SDS011;5493;48.884;8.338;2022-10-26T05:03:30;4.20;;;1.63;;
10880;SDS011;5493;48.884;8.338;2022-10-26T05:05:58;3.20;;;1.80;;
10880;SDS011;5493;48.884;8.338;2022-10-26T05:08:26;2.27;;;1.70;;
10880;SDS011;5493;48.884;8.338;2022-10-26T05:10:53;4.23;;;1.60;;
10880;SDS011;5493;48.884;8.338;2022-10-26T05:13:20;2.10;;;1.43;;
10880;SDS011;5493;48.884;8.338;2022-10-26T05:15:47;7.03;;;1.93;;
10880;SDS011;5493;48.884;8.338;2022-10-26T05:18:13;4.63;;;2.10;;
10880;SDS011;5493;48.884;8.338;2022-10-26T05:20:40;4.93;;;1.87;;
10880;SDS011;5493;48.884;8.338;2022-10-26T05:23:09;5.40;;;2.27;;
10880;SDS011;5493;48.884;8.338;2022-10-26T05:25:37;2.83;;;1.90;;
10880;SDS011;5493;48.884;8.338;2022-10-26T05:28:05;2.47;;;1.60;;
10880;SDS011;5493;48.884;8.338;2022-10-26T05:30:33;5.33;;;2.13;;
10880;SDS011;5493;48.884;8.338;2022-10-26T05:33:00;4.77;;;2.10;;
10880;SDS011;5493;48.884;8.338;2022-10-26T05:35:27;2.40;;;2.00;;
10880;SDS011;5493;48.884;8.338;2022-10-26T05:37:54;3.60;;;2.17;;
10880;SDS011;5493;48.884;8.338;2022-10-26T05:40:22;8.63;;;2.07;;
10880;SDS011;5493;48.884;8.338;2022-10-26T05:42:49;4.97;;;2.30;;
10880;SDS011;5493;48.884;8.338;2022-10-26T05:45:16;9.90;;;1.90;;
10880;SDS011;5493;48.884;8.338;2022-10-26T05:47:43;4.37;;;2.07;;
10880;SDS011;5493;48.884;8.338;2022-10-26T05:50:11;3.47;;;2.27;;
10880;SDS011;5493;48.884;8.338;2022-10-26T05:52:38;7.50;;;1.97;;
10880;SDS011;5493;48.884;8.338;2022-10-26T05:55:05;6.10;;;2.07;;
10880;SDS011;5493;48.884;8.338;2022-10-26T05:57:34;3.30;;;1.80;;
10880;SDS011;5493;48.884;8.338;2022-10-26T06:00:05;3.03;;;1.77;;
10880;SDS011;5493;48.884;8.338;2022-10-26T06:02:35;4.73;;;1.87;;
10880;SDS011;5493;48.884;8.338;2022-10-26T06:05:09;4.90;;;2.17;;
10880;SDS011;5493;48.884;8.338;2022-10-26T06:07:36;6.13;;;3.20;;
10880;SDS011;5493;48.884;8.338;2022-10-26T06:10:04;6.03;;;2.70;;
10880;SDS011;5493;48.884;8.338;2022-10-26T06:12:31;5.27;;;2.23;;
10880;SDS011;5493;48.884;8.338;2022-10-26T06:15:00;6.00;;;2.33;;
10880;SDS011;5493;48.884;8.338;2022-10-26T06:17:33;3.67;;;2.57;;
10880;SDS011;5493;48.884;8.338;2022-10-26T06:20:12;8.77;;;2.57;;
10880;SDS011;5493;48.884;8.338;2022-10-26T06:22:52;3.40;;;2.40;;
10880;SDS011;5493;48.884;8.338;2022-10-26T06:25:32;5.07;;;2.83;;
10880;SDS011;5493;48.884;8.338;2022-10-26T06:28:06;6.33;;;2.93;;
10880;SDS011;5493;48.884;8.338;2022-10-26T06:30:42;5.13;;;3.10;;
10880;SDS011;5493;48.884;8.338;2022-10-26T06:33:09;5.73;;;4.17;;
10880;SDS011;5493;48.884;8.338;2022-10-26T06:35:40;3.97;;;3.13;;
10880;SDS011;5493;48.884;8.338;2022-10-26T06:38:15;5.17;;;2.40;;
10880;SDS011;5493;48.884;8.338;2022-10-26T06:40:44;6.70;;;2.10;;
10880;SDS011;5493;48.884;8.338;2022-10-26T06:43:16;4.13;;;2.30;;
10880;SDS011;5493;48.884;8.338;2022-10-26T06:45:53;5.90;;;2.97;;
10880;SDS011;5493;48.884;8.338;2022-10-26T06:48:29;3.77;;;2.37;;
10880;SDS011;5493;48.884;8.338;2022-10-26T06:51:06;5.17;;;2.27;;
10880;SDS011;5493;48.884;8.338;2022-10-26T06:53:40;4.13;;;2.20;;
10880;SDS011;5493;48.884;8.338;2022-10-26T06:56:12;4.53;;;2.40;;
10880;SDS011;5493;48.884;8.338;2022-10-26T06:58:39;5.87;;;2.33;;
10880;SDS011;5493;48.884;8.338;2022-10-26T07:01:08;4.03;;;2.33;;
10880;SDS011;5493;48.884;8.338;2022-10-26T07:03:36;3.77;;;2.40;;
10880;SDS011;5493;48.884;8.338;2022-10-26T07:06:03;3.13;;;2.30;;
10880;SDS011;5493;48.884;8.338;2022-10-26T07:08:30;4.43;;;2.20;;
10880;SDS011;5493;48.884;8.338;2022-10-26T07:10:57;4.60;;;2.00;;
10880;SDS011;5493;48.884;8.338;2022-10-26T07:13:24;4.07;;;2.23;;
10880;SDS011;5493;48.884;8.338;2022-10-26T07:15:50;4.00;;;2.40;;
10880;SDS011;5493;48.884;8.338;2022-10-26T07:18:18;3.77;;;2.10;;
10880;SDS011;5493;48.884;8.338;2022-10-26T07:20:45;3.67;;;2.10;;
10880;SDS011;5493;48.884;8.338;2022-10-26T07:23:11;3.00;;;2.27;;
10880;SDS011;5493;48.884;8.338;2022-10-26T07:25:39;8.20;;;2.00;;
10880;SDS011;5493;48.884;8.338;2022-10-26T07:28:07;5.13;;;1.97;;
10880;SDS011;5493;48.884;8.338;2022-10-26T07:30:34;5.57;;;2.67;;
10880;SDS011;5493;48.884;8.338;2022-10-26T07:33:03;5.73;;;3.10;;
10880;SDS011;5493;48.884;8.338;2022-10-26T07:35:32;7.07;;;3.50;;
10880;SDS011;5493;48.884;8.338;2022-10-26T07:37:59;4.93;;;2.50;;
10880;SDS011;5493;48.884;8.338;2022-10-26T07:40:26;3.57;;;2.00;;
10880;SDS011;5493;48.884;8.338;2022-10-26T07:42:55;4.53;;;2.37;;
10880;SDS011;5493;48.884;8.338;2022-10-26T07:45:22;8.13;;;2.60;;
10880;SDS011;5493;48.884;8.338;2022-10-26T07:47:49;5.53;;;2.57;;
10880;SDS011;5493;48.884;8.338;2022-10-26T07:50:15;6.00;;;2.60;;
10880;SDS011;5493;48.884;8.338;2022-10-26T07:52:43;8.30;;;2.80;;
10880;SDS011;5493;48.884;8.338;2022-10-26T07:55:10;5.37;;;2.93;;
10880;SDS011;5493;48.884;8.338;2022-10-26T07:57:38;4.87;;;2.63;;
10880;SDS011;5493;48.884;8.338;2022-10-26T08:00:06;5.17;;;2.67;;
10880;SDS011;5493;48.884;8.338;2022-10-26T08:02:34;4.13;;;2.40;;
10880;SDS011;5493;48.884;8.338;2022-10-26T08:05:01;5.00;;;2.63;;
10880;SDS011;5493;48.884;8.338;2022-10-26T08:07:27;5.57;;;2.27;;
10880;SDS011;5493;48.884;8.338;2022-10-26T08:09:55;5.90;;;2.90;;
10880;SDS011;5493;48.884;8.338;2022-10-26T08:12:22;7.63;;;2.50;;
10880;SDS011;5493;48.884;8.338;2022-10-26T08:14:49;4.77;;;2.53;;
10880;SDS011;5493;48.884;8.338;2022-10-26T08:17:15;5.17;;;2.37;;
10880;SDS011;5493;48.884;8.338;2022-10-26T08:19:42;2.60;;;2.17;;
10880;SDS011;5493;48.884;8.338;2022-10-26T08:22:08;3.57;;;2.10;;
10880;SDS011;5493;48.884;8.338;2022-10-26T08:24:35;4.17;;;2.10;;
10880;SDS011;5493;48.884;8.338;2022-10-26T08:27:03;3.37;;;2.20;;
10880;SDS011;5493;48.884;8.338;2022-10-26T08:29:29;5.40;;;2.40;;
10880;SDS011;5493;48.884;8.338;2022-10-26T08:31:56;5.33;;;2.33;;
10880;SDS011;5493;48.884;8.338;2022-10-26T08:34:23;3.97;;;2.13;;
10880;SDS011;5493;48.884;8.338;2022-10-26T08:36:49;4.43;;;2.67;;
10880;SDS011;5493;48.884;8.338;2022-10-26T08:39:16;4.30;;;2.47;;
10880;SDS011;5493;48.884;8.338;2022-10-26T08:41:43;10.47;;;2.47;;
10880;SDS011;5493;48.884;8.338;2022-10-26T08:44:16;4.43;;;2.10;;
10880;SDS011;5493;48.884;8.338;2022-10-26T08:46:50;6.20;;;2.53;;
10880;SDS011;5493;48.884;8.338;2022-10-26T08:49:21;7.67;;;2.20;;
10880;SDS011;5493;48.884;8.338;2022-10-26T08:51:51;4.17;;;2.63;;
10880;SDS011;5493;48.884;8.338;2022-10-26T08:54:23;4.70;;;2.60;;
10880;SDS011;5493;48.884;8.338;2022-10-26T08:56:57;7.07;;;2.30;;
10880;SDS011;5493;48.884;8.338;2022-10-26T08:59:29;7.17;;;2.73;;
10880;SDS011;5493;48.884;8.338;2022-10-26T09:02:01;3.87;;;2.10;;
10880;SDS011;5493;48.884;8.338;2022-10-26T09:04:28;7.57;;;2.20;;
10880;SDS011;5493;48.884;8.338;2022-10-26T09:06:59;2.60;;;2.00;;
10880;SDS011;5493;48.884;8.338;2022-10-26T09:09:35;6.20;;;2.20;;
10880;SDS011;5493;48.884;8.338;2022-10-26T09:12:12;2.10;;;1.87;;
10880;SDS011;5493;48.884;8.338;2022-10-26T09:14:52;3.30;;;2.17;;
10880;SDS011;5493;48.884;8.338;2022-10-26T09:17:27;4.60;;;2.30;;
10880;SDS011;5493;48.884;8.338;2022-10-26T09:20:08;5.23;;;2.30;;
10880;SDS011;5493;48.884;8.338;2022-10-26T09:22:51;8.03;;;2.80;;
10880;SDS011;5493;48.884;8.338;2022-10-26T09:25:26;5.23;;;1.90;;
10880;SDS011;5493;48.884;8.338;2022-10-26T09:27:59;2.47;;;2.00;;
10880;SDS011;5493;48.884;8.338;2022-10-26T09:30:28;2.93;;;1.60;;
10880;SDS011;5493;48.884;8.338;2022-10-26T09:32:56;4.00;;;2.07;;
10880;SDS011;5493;48.884;8.338;2022-10-26T09:35:26;4.77;;;2.23;;
10880;SDS011;5493;48.884;8.338;2022-10-26T09:37:57;4.33;;;1.90;;
10880;SDS011;5493;48.884;8.338;2022-10-26T09:40:30;4.67;;;1.90;;
10880;SDS011;5493;48.884;8.338;2022-10-26T09:43:02;4.27;;;2.30;;
10880;SDS011;5493;48.884;8.338;2022-10-26T09:45:35;6.37;;;2.40;;
10880;SDS011;5493;48.884;8.338;2022-10-26T09:48:04;4.40;;;2.43;;
10880;SDS011;5493;48.884;8.338;2022-10-26T09:50:37;3.53;;;2.03;;
10880;SDS011;5493;48.884;8.338;2022-10-26T09:53:06;5.97;;;2.30;;
10880;SDS011;5493;48.884;8.338;2022-10-26T09:55:36;2.63;;;1.80;;
10880;SDS011;5493;48.884;8.338;2022-10-26T09:58:08;3.67;;;1.77;;
10880;SDS011;5493;48.884;8.338;2022-10-26T10:00:40;8.40;;;2.13;;
10880;SDS011;5493;48.884;8.338;2022-10-26T10:03:16;6.87;;;2.20;;
10880;SDS011;5493;48.884;8.338;2022-10-26T10:05:44;6.43;;;2.27;;
10880;SDS011;5493;48.884;8.338;2022-10-26T10:08:18;3.37;;;1.93;;
10880;SDS011;5493;48.884;8.338;2022-10-26T10:10:57;5.20;;;2.30;;
10880;SDS011;5493;48.884;8.338;2022-10-26T10:13:26;3.10;;;1.80;;
10880;SDS011;5493;48.884;8.338;2022-10-26T10:16:00;6.53;;;2.23;;
10880;SDS011;5493;48.884;8.338;2022-10-26T10:18:29;5.20;;;2.13;;
10880;SDS011;5493;48.884;8.338;2022-10-26T10:20:57;3.73;;;1.90;;
10880;SDS011;5493;48.884;8.338;2022-10-26T10:23:25;11.13;;;2.20;;
10880;SDS011;5493;48.884;8.338;2022-10-26T10:25:57;6.87;;;2.17;;
10880;SDS011;5493;48.884;8.338;2022-10-26T10:28:25;7.77;;;1.90;;
10880;SDS011;5493;48.884;8.338;2022-10-26T10:30:53;5.40;;;1.50;;
10880;SDS011;5493;48.884;8.338;2022-10-26T10:33:26;2.90;;;1.83;;
10880;SDS011;5493;48.884;8.338;2022-10-26T10:35:59;5.43;;;1.87;;
10880;SDS011;5493;48.884;8.338;2022-10-26T10:38:27;4.72;;;1.77;;
10880;SDS011;5493;48.884;8.338;2022-10-26T10:40:55;4.25;;;1.58;;
10880;SDS011;5493;48.884;8.338;2022-10-26T10:43:23;5.60;;;2.10;;
10880;SDS011;5493;48.884;8.338;2022-10-26T10:45:52;4.45;;;1.73;;
10880;SDS011;5493;48.884;8.338;2022-10-26T10:48:21;4.38;;;1.92;;
10880;SDS011;5493;48.884;8.338;2022-10-26T10:50:53;5.27;;;1.93;;
10880;SDS011;5493;48.884;8.338;2022-10-26T10:53:21;5.65;;;1.90;;
10880;SDS011;5493;48.884;8.338;2022-10-26T10:58:49;2.85;;;1.45;;
10880;SDS011;5493;48.884;8.338;2022-10-26T11:01:29;3.95;;;1.83;;
10880;SDS011;5493;48.884;8.338;2022-10-26T11:04:04;6.95;;;1.90;;
10880;SDS011;5493;48.884;8.338;2022-10-26T11:06:45;3.72;;;1.70;;
10880;SDS011;5493;48.884;8.338;2022-10-26T11:09:13;4.88;;;1.48;;
10880;SDS011;5493;48.884;8.338;2022-10-26T11:11:42;5.25;;;1.75;;
10880;SDS011;5493;48.884;8.338;2022-10-26T11:14:14;8.35;;;2.05;;
10880;SDS011;5493;48.884;8.338;2022-10-26T11:16:44;5.25;;;1.70;;
10880;SDS011;5493;48.884;8.338;2022-10-26T11:19:17;3.67;;;1.45;;
10880;SDS011;5493;48.884;8.338;2022-10-26T11:21:49;4.10;;;1.73;;
10880;SDS011;5493;48.884;8.338;2022-10-26T11:24:19;4.85;;;2.13;;
10880;SDS011;5493;48.884;8.338;2022-10-26T11:26:51;4.25;;;1.45;;
10880;SDS011;5493;48.884;8.338;2022-10-26T11:29:24;4.22;;;2.05;;
10880;SDS011;5493;48.884;8.338;2022-10-26T11:31:59;5.15;;;1.63;;
10880;SDS011;5493;48.884;8.338;2022-10-26T11:34:35;5.03;;;2.45;;
10880;SDS011;5493;48.884;8.338;2022-10-26T11:37:09;5.47;;;1.85;;
10880;SDS011;5493;48.884;8.338;2022-10-26T11:39:42;7.32;;;2.03;;
10880;SDS011;5493;48.884;8.338;2022-10-26T11:42:18;3.83;;;1.77;;
10880;SDS011;5493;48.884;8.338;2022-10-26T11:44:50;4.15;;;1.77;;
10880;SDS011;5493;48.884;8.338;2022-10-26T11:47:21;5.03;;;1.92;;
10880;SDS011;5493;48.884;8.338;2022-10-26T11:49:56;5.07;;;2.05;;
10880;SDS011;5493;48.884;8.338;2022-10-26T11:52:29;6.20;;;1.67;;
10880;SDS011;5493;48.884;8.338;2022-10-26T11:55:03;3.25;;;1.90;;
10880;SDS011;5493;48.884;8.338;2022-10-26T11:57:30;5.65;;;1.95;;
10880;SDS011;5493;48.884;8.338;2022-10-26T12:00:00;5.63;;;1.92;;
10880;SDS011;5493;48.884;8.338;2022-10-26T12:02:27;4.53;;;2.05;;
10880;SDS011;5493;48.884;8.338;2022-10-26T12:04:58;4.00;;;1.80;;
10880;SDS011;5493;48.884;8.338;2022-10-26T12:07:31;4.93;;;1.80;;
10880;SDS011;5493;48.884;8.338;2022-10-26T12:10:01;3.15;;;1.52;;
10880;SDS011;5493;48.884;8.338;2022-10-26T12:12:33;4.53;;;1.55;;
10880;SDS011;5493;48.884;8.338;2022-10-26T12:15:08;2.25;;;1.45;;
10880;SDS011;5493;48.884;8.338;2022-10-26T12:17:45;4.22;;;1.58;;
10880;SDS011;5493;48.884;8.338;2022-10-26T12:20:38;3.85;;;1.60;;
10880;SDS011;5493;48.884;8.338;2022-10-26T12:23:19;4.53;;;1.63;;
10880;SDS011;5493;48.884;8.338;2022-10-26T12:25:48;4.07;;;1.73;;
10880;SDS011;5493;48.884;8.338;2022-10-26T12:34:10;4.32;;;1.55;;
10880;SDS011;5493;48.884;8.338;2022-10-26T12:37:08;3.15;;;1.52;;
10880;SDS011;5493;48.884;8.338;2022-10-26T12:39:36;2.50;;;1.55;;
10880;SDS011;5493;48.884;8.338;2022-10-26T12:45:00;3.63;;;1.58;;
10880;SDS011;5493;48.884;8.338;2022-10-26T12:50:29;5.80;;;1.52;;
10880;SDS011;5493;48.884;8.338;2022-10-26T12:52:57;5.60;;;1.60;;
10880;SDS011;5493;48.884;8.338;2022-10-26T12:58:34;4.90;;;1.85;;
10880;SDS011;5493;48.884;8.338;2022-10-26T13:01:18;6.30;;;1.77;;
10880;SDS011;5493;48.884;8.338;2022-10-26T13:03:56;4.35;;;1.70;;
10880;SDS011;5493;48.884;8.338;2022-10-26T13:06:39;6.00;;;1.80;;
10880;SDS011;5493;48.884;8.338;2022-10-26T13:09:18;3.47;;;1.50;;
10880;SDS011;5493;48.884;8.338;2022-10-26T13:11:47;3.45;;;1.60;;
10880;SDS011;5493;48.884;8.338;2022-10-26T13:14:17;4.88;;;1.85;;
10880;SDS011;5493;48.884;8.338;2022-10-26T13:16:47;5.25;;;2.00;;
10880;SDS011;5493;48.884;8.338;2022-10-26T13:19:21;4.40;;;1.33;;
10880;SDS011;5493;48.884;8.338;2022-10-26T13:21:49;4.72;;;1.50;;
10880;SDS011;5493;48.884;8.338;2022-10-26T13:24:18;3.88;;;1.63;;
10880;SDS011;5493;48.884;8.338;2022-10-26T13:32:52;4.28;;;1.58;;
10880;SDS011;5493;48.884;8.338;2022-10-26T13:35:22;2.80;;;1.42;;
10880;SDS011;5493;48.884;8.338;2022-10-26T13:37:50;5.32;;;1.67;;
10880;SDS011;5493;48.884;8.338;2022-10-26T13:40:21;4.95;;;1.48;;
10880;SDS011;5493;48.884;8.338;2022-10-26T13:42:51;2.95;;;1.55;;
10880;SDS011;5493;48.884;8.338;2022-10-26T13:45:21;4.43;;;1.77;;
10880;SDS011;5493;48.884;8.338;2022-10-26T13:47:54;2.30;;;1.70;;
10880;SDS011;5493;48.884;8.338;2022-10-26T13:50:24;7.57;;;1.90;;
10880;SDS011;5493;48.884;8.338;2022-10-26T13:52:54;3.75;;;1.75;;
10880;SDS011;5493;48.884;8.338;2022-10-26T13:55:27;3.33;;;1.60;;
10880;SDS011;5493;48.884;8.338;2022-10-26T13:58:01;3.97;;;1.50;;
10880;SDS011;5493;48.884;8.338;2022-10-26T14:00:40;4.10;;;1.40;;
10880;SDS011;5493;48.884;8.338;2022-10-26T14:03:25;7.55;;;1.80;;
10880;SDS011;5493;48.884;8.338;2022-10-26T14:05:52;8.10;;;2.00;;
10880;SDS011;5493;48.884;8.338;2022-10-26T14:08:19;6.15;;;1.80;;
10880;SDS011;5493;48.884;8.338;2022-10-26T14:10:52;4.50;;;1.88;;
10880;SDS011;5493;48.884;8.338;2022-10-26T14:13:22;4.50;;;1.65;;
10880;SDS011;5493;48.884;8.338;2022-10-26T14:15:51;3.55;;;1.40;;
10880;SDS011;5493;48.884;8.338;2022-10-26T14:18:20;4.60;;;1.60;;
10880;SDS011;5493;48.884;8.338;2022-10-26T14:20:50;2.88;;;1.58;;
10880;SDS011;5493;48.884;8.338;2022-10-26T14:23:26;4.28;;;2.15;;
10880;SDS011;5493;48.884;8.338;2022-10-26T14:25:54;2.75;;;1.70;;
10880;SDS011;5493;48.884;8.338;2022-10-26T14:28:22;6.63;;;1.75;;
10880;SDS011;5493;48.884;8.338;2022-10-26T14:30:52;4.68;;;1.83;;
10880;SDS011;5493;48.884;8.338;2022-10-26T14:33:19;3.50;;;1.75;;
10880;SDS011;5493;48.884;8.338;2022-10-26T14:35:51;6.20;;;1.70;;
10880;SDS011;5493;48.884;8.338;2022-10-26T14:38:18;5.10;;;1.80;;
10880;SDS011;5493;48.884;8.338;2022-10-26T14:40:50;5.60;;;2.03;;
10880;SDS011;5493;48.884;8.338;2022-10-26T14:43:23;4.18;;;1.83;;
10880;SDS011;5493;48.884;8.338;2022-10-26T14:45:51;7.10;;;1.73;;
10880;SDS011;5493;48.884;8.338;2022-10-26T14:48:22;4.90;;;1.70;;
10880;SDS011;5493;48.884;8.338;2022-10-26T14:51:00;4.28;;;2.00;;
10880;SDS011;5493;48.884;8.338;2022-10-26T14:53:29;4.57;;;1.88;;
10880;SDS011;5493;48.884;8.338;2022-10-26T14:55:59;8.55;;;1.80;;
10880;SDS011;5493;48.884;8.338;2022-10-26T14:58:28;7.88;;;2.15;;
10880;SDS011;5493;48.884;8.338;2022-10-26T15:03:53;7.05;;;2.63;;
10880;SDS011;5493;48.884;8.338;2022-10-26T15:06:36;3.17;;;2.30;;
10880;SDS011;5493;48.884;8.338;2022-10-26T15:09:05;7.28;;;2.15;;
10880;SDS011;5493;48.884;8.338;2022-10-26T15:11:33;6.05;;;2.33;;
10880;SDS011;5493;48.884;8.338;2022-10-26T15:14:01;6.07;;;2.40;;
10880;SDS011;5493;48.884;8.338;2022-10-26T15:16:28;5.50;;;2.28;;
10880;SDS011;5493;48.884;8.338;2022-10-26T15:18:57;4.65;;;2.08;;
10880;SDS011;5493;48.884;8.338;2022-10-26T15:21:32;4.35;;;2.13;;
10880;SDS011;5493;48.884;8.338;2022-10-26T15:24:01;8.95;;;2.55;;
10880;SDS011;5493;48.884;8.338;2022-10-26T15:26:41;3.78;;;2.05;;
10880;SDS011;5493;48.884;8.338;2022-10-26T15:29:29;7.82;;;2.25;;
10880;SDS011;5493;48.884;8.338;2022-10-26T15:32:00;6.13;;;2.22;;
10880;SDS011;5493;48.884;8.338;2022-10-26T15:34:27;5.07;;;2.20;;
10880;SDS011;5493;48.884;8.338;2022-10-26T15:36:53;4.63;;;2.10;;
10880;SDS011;5493;48.884;8.338;2022-10-26T15:39:21;8.20;;;2.42;;
10880;SDS011;5493;48.884;8.338;2022-10-26T15:41:47;5.15;;;1.90;;
10880;SDS011;5493;48.884;8.338;2022-10-26T15:44:18;5.10;;;4.60;;
10880;SDS011;5493;48.884;8.338;2022-10-26T15:46:46;6.05;;;3.85;;
10880;SDS011;5493;48.884;8.338;2022-10-26T15:49:15;3.05;;;2.13;;
10880;SDS011;5493;48.884;8.338;2022-10-26T15:51:44;5.38;;;2.65;;
10880;SDS011;5493;48.884;8.338;2022-10-26T15:54:11;4.47;;;2.35;;